sensor_id;sensor_type;location;lat;lon;timestamp;temperature;humidity
6666;DHT22;3369;49.906;8.598;2022-10-23T00:01:30;11.30;99.90
6666;DHT22;3369;49.906;8.598;2022-10-23T00:03:58;11.20;99.90
6666;DHT22;3369;49.906;8.598;2022-10-23T00:06:25;11.20;99.90
6666;DHT22;3369;49.906;8.598;2022-10-23T00:08:51;11.20;99.90
6666;DHT22;3369;49.906;8.598;2022-10-23T00:11:21;11.20;99.90
6666;DHT22;3369;49.906;8.598;2022-10-23T00:13:48;11.20;99.90
6666;DHT22;3369;49.906;8.598;2022-10-23T00:16:14;11.10;99.90
6666;DHT22;3369;49.906;8.598;2022-10-23T00:18:40;11.10;99.90
6666;DHT22;3369;49.906;8.598;2022-10-23T00:21:08;11.10;99.90
6666;DHT22;3369;49.906;8.598;2022-10-23T00:23:34;11.00;99.90
6666;DHT22;3369;49.906;8.598;2022-10-23T00:26:01;11.00;99.90
6666;DHT22;3369;49.906;8.598;2022-10-23T00:28:27;10.90;99.90
6666;DHT22;3369;49.906;8.598;2022-10-23T00:30:53;10.90;99.90
6666;DHT22;3369;49.906;8.598;2022-10-23T00:33:18;10.80;99.90
6666;DHT22;3369;49.906;8.598;2022-10-23T00:35:44;10.80;99.90
6666;DHT22;3369;49.906;8.598;2022-10-23T00:38:10;10.70;99.90
6666;DHT22;3369;49.906;8.598;2022-10-23T00:40:37;10.70;99.90
6666;DHT22;3369;49.906;8.598;2022-10-23T00:43:03;10.60;99.90
6666;DHT22;3369;49.906;8.598;2022-10-23T00:45:30;10.60;99.90
6666;DHT22;3369;49.906;8.598;2022-10-23T00:47:59;10.50;99.90
6666;DHT22;3369;49.906;8.598;2022-10-23T00:50:28;10.50;99.90
6666;DHT22;3369;49.906;8.598;2022-10-23T00:52:56;10.50;99.90
6666;DHT22;3369;49.906;8.598;2022-10-23T00:55:23;10.50;99.90
6666;DHT22;3369;49.906;8.598;2022-10-23T00:57:50;10.50;99.90
6666;DHT22;3369;49.906;8.598;2022-10-23T01:00:22;10.50;99.90
6666;DHT22;3369;49.906;8.598;2022-10-23T01:02:49;10.50;99.90
6666;DHT22;3369;49.906;8.598;2022-10-23T01:05:15;10.50;99.90
6666;DHT22;3369;49.906;8.598;2022-10-23T01:07:55;10.50;99.90
6666;DHT22;3369;49.906;8.598;2022-10-23T01:10:30;10.50;99.90
6666;DHT22;3369;49.906;8.598;2022-10-23T01:15:48;10.40;99.90
6666;DHT22;3369;49.906;8.598;2022-10-23T01:18:44;10.40;99.90
6666;DHT22;3369;49.906;8.598;2022-10-23T01:21:12;10.40;99.90
6666;DHT22;3369;49.906;8.598;2022-10-23T01:31:44;10.30;99.90
6666;DHT22;3369;49.906;8.598;2022-10-23T01:34:38;10.30;99.90
6666;DHT22;3369;49.906;8.598;2022-10-23T01:37:11;10.30;99.90
6666;DHT22;3369;49.906;8.598;2022-10-23T01:39:44;10.20;99.90
6666;DHT22;3369;49.906;8.598;2022-10-23T01:42:15;10.10;99.90
6666;DHT22;3369;49.906;8.598;2022-10-23T01:44:54;10.10;99.90
6666;DHT22;3369;49.906;8.598;2022-10-23T01:47:26;10.10;99.90
6666;DHT22;3369;49.906;8.598;2022-10-23T01:49:55;10.10;99.90
6666;DHT22;3369;49.906;8.598;2022-10-23T01:52:21;10.10;99.90
6666;DHT22;3369;49.906;8.598;2022-10-23T01:54:49;10.10;99.90
6666;DHT22;3369;49.906;8.598;2022-10-23T01:57:17;10.10;99.90
6666;DHT22;3369;49.906;8.598;2022-10-23T01:59:50;10.10;99.90
6666;DHT22;3369;49.906;8.598;2022-10-23T02:02:19;10.10;99.90
6666;DHT22;3369;49.906;8.598;2022-10-23T02:04:57;10.10;99.90
6666;DHT22;3369;49.906;8.598;2022-10-23T02:07:24;10.10;99.90
6666;DHT22;3369;49.906;8.598;2022-10-23T02:09:50;10.10;99.90
6666;DHT22;3369;49.906;8.598;2022-10-23T02:12:32;10.10;99.90
6666;DHT22;3369;49.906;8.598;2022-10-23T02:15:07;10.00;99.90
6666;DHT22;3369;49.906;8.598;2022-10-23T02:38:54;9.80;99.90
6666;DHT22;3369;49.906;8.598;2022-10-23T02:47:31;9.80;99.90
6666;DHT22;3369;49.906;8.598;2022-10-23T02:59:05;9.80;99.90
6666;DHT22;3369;49.906;8.598;2022-10-23T03:02:01;9.80;99.90
6666;DHT22;3369;49.906;8.598;2022-10-23T03:04:28;9.80;99.90
6666;DHT22;3369;49.906;8.598;2022-10-23T03:06:55;9.90;99.90
6666;DHT22;3369;49.906;8.598;2022-10-23T03:09:21;9.90;99.90
6666;DHT22;3369;49.906;8.598;2022-10-23T03:11:47;9.90;99.90
6666;DHT22;3369;49.906;8.598;2022-10-23T03:14:13;9.90;99.90
6666;DHT22;3369;49.906;8.598;2022-10-23T03:16:39;9.90;99.90
6666;DHT22;3369;49.906;8.598;2022-10-23T03:19:04;9.90;99.90
6666;DHT22;3369;49.906;8.598;2022-10-23T03:21:30;9.90;99.90
6666;DHT22;3369;49.906;8.598;2022-10-23T03:23:56;9.90;99.90
6666;DHT22;3369;49.906;8.598;2022-10-23T03:26:21;10.00;99.90
6666;DHT22;3369;49.906;8.598;2022-10-23T03:28:47;10.00;99.90
6666;DHT22;3369;49.906;8.598;2022-10-23T03:31:13;10.00;99.90
6666;DHT22;3369;49.906;8.598;2022-10-23T03:33:38;10.00;99.90
6666;DHT22;3369;49.906;8.598;2022-10-23T03:36:04;10.00;99.90
6666;DHT22;3369;49.906;8.598;2022-10-23T03:38:30;10.00;99.90
6666;DHT22;3369;49.906;8.598;2022-10-23T03:40:56;9.90;99.90
6666;DHT22;3369;49.906;8.598;2022-10-23T03:43:21;9.90;99.90
6666;DHT22;3369;49.906;8.598;2022-10-23T03:45:47;9.90;99.90
6666;DHT22;3369;49.906;8.598;2022-10-23T03:48:13;9.90;99.90
6666;DHT22;3369;49.906;8.598;2022-10-23T03:50:39;9.90;99.90
6666;DHT22;3369;49.906;8.598;2022-10-23T03:53:05;9.90;99.90
6666;DHT22;3369;49.906;8.598;2022-10-23T03:55:30;9.90;99.90
6666;DHT22;3369;49.906;8.598;2022-10-23T03:57:56;9.80;99.90
6666;DHT22;3369;49.906;8.598;2022-10-23T04:00:22;9.80;99.90
6666;DHT22;3369;49.906;8.598;2022-10-23T04:02:48;9.80;99.90
6666;DHT22;3369;49.906;8.598;2022-10-23T04:05:13;9.80;99.90
6666;DHT22;3369;49.906;8.598;2022-10-23T04:07:39;9.80;99.90
6666;DHT22;3369;49.906;8.598;2022-10-23T04:10:05;9.80;99.90
6666;DHT22;3369;49.906;8.598;2022-10-23T04:12:31;9.80;99.90
6666;DHT22;3369;49.906;8.598;2022-10-23T04:14:57;9.80;99.90
6666;DHT22;3369;49.906;8.598;2022-10-23T04:17:22;9.90;99.90
6666;DHT22;3369;49.906;8.598;2022-10-23T04:19:48;9.80;99.90
6666;DHT22;3369;49.906;8.598;2022-10-23T04:22:14;9.80;99.90
6666;DHT22;3369;49.906;8.598;2022-10-23T04:24:39;9.70;99.90
6666;DHT22;3369;49.906;8.598;2022-10-23T04:27:11;9.70;99.90
6666;DHT22;3369;49.906;8.598;2022-10-23T04:29:37;9.70;99.90
6666;DHT22;3369;49.906;8.598;2022-10-23T04:32:02;9.60;99.90
6666;DHT22;3369;49.906;8.598;2022-10-23T04:34:28;9.60;99.90
6666;DHT22;3369;49.906;8.598;2022-10-23T04:36:54;9.60;99.90
6666;DHT22;3369;49.906;8.598;2022-10-23T04:39:19;9.60;99.90
6666;DHT22;3369;49.906;8.598;2022-10-23T04:41:45;9.60;99.90
6666;DHT22;3369;49.906;8.598;2022-10-23T04:44:11;9.60;99.90
6666;DHT22;3369;49.906;8.598;2022-10-23T04:46:36;9.50;99.90
6666;DHT22;3369;49.906;8.598;2022-10-23T04:49:02;9.50;99.90
6666;DHT22;3369;49.906;8.598;2022-10-23T04:51:28;9.40;99.90
6666;DHT22;3369;49.906;8.598;2022-10-23T04:53:53;9.40;99.90
6666;DHT22;3369;49.906;8.598;2022-10-23T04:56:19;9.40;99.90
6666;DHT22;3369;49.906;8.598;2022-10-23T04:58:45;9.40;99.90
6666;DHT22;3369;49.906;8.598;2022-10-23T05:01:10;9.40;99.90
6666;DHT22;3369;49.906;8.598;2022-10-23T05:03:37;9.40;99.90
6666;DHT22;3369;49.906;8.598;2022-10-23T05:06:03;9.40;99.90
6666;DHT22;3369;49.906;8.598;2022-10-23T05:08:29;9.30;99.90
6666;DHT22;3369;49.906;8.598;2022-10-23T05:10:55;9.30;99.90
6666;DHT22;3369;49.906;8.598;2022-10-23T05:13:21;9.30;99.90
6666;DHT22;3369;49.906;8.598;2022-10-23T05:15:50;9.30;99.90
6666;DHT22;3369;49.906;8.598;2022-10-23T05:18:20;9.30;99.90
6666;DHT22;3369;49.906;8.598;2022-10-23T05:20:49;9.30;99.90
6666;DHT22;3369;49.906;8.598;2022-10-23T05:23:18;9.40;99.90
6666;DHT22;3369;49.906;8.598;2022-10-23T05:25:46;9.40;99.90
6666;DHT22;3369;49.906;8.598;2022-10-23T05:28:11;9.40;99.90
6666;DHT22;3369;49.906;8.598;2022-10-23T05:30:37;9.40;99.90
6666;DHT22;3369;49.906;8.598;2022-10-23T05:33:03;9.40;99.90
6666;DHT22;3369;49.906;8.598;2022-10-23T05:35:29;9.40;99.90
6666;DHT22;3369;49.906;8.598;2022-10-23T05:37:56;9.40;99.90
6666;DHT22;3369;49.906;8.598;2022-10-23T05:40:23;9.40;99.90
6666;DHT22;3369;49.906;8.598;2022-10-23T05:42:49;9.40;99.90
6666;DHT22;3369;49.906;8.598;2022-10-23T05:45:15;9.40;99.90
6666;DHT22;3369;49.906;8.598;2022-10-23T05:47:45;9.40;99.90
6666;DHT22;3369;49.906;8.598;2022-10-23T05:50:12;9.30;99.90
6666;DHT22;3369;49.906;8.598;2022-10-23T05:52:37;9.30;99.90
6666;DHT22;3369;49.906;8.598;2022-10-23T05:55:03;9.30;99.90
6666;DHT22;3369;49.906;8.598;2022-10-23T05:57:32;9.20;99.90
6666;DHT22;3369;49.906;8.598;2022-10-23T05:59:58;9.20;99.90
6666;DHT22;3369;49.906;8.598;2022-10-23T06:02:24;9.20;99.90
6666;DHT22;3369;49.906;8.598;2022-10-23T06:04:49;9.10;99.90
6666;DHT22;3369;49.906;8.598;2022-10-23T06:07:15;9.10;99.90
6666;DHT22;3369;49.906;8.598;2022-10-23T06:09:41;9.10;99.90
6666;DHT22;3369;49.906;8.598;2022-10-23T06:12:06;9.10;99.90
6666;DHT22;3369;49.906;8.598;2022-10-23T06:14:32;9.10;99.90
6666;DHT22;3369;49.906;8.598;2022-10-23T06:16:58;9.10;99.90
6666;DHT22;3369;49.906;8.598;2022-10-23T06:19:24;9.10;99.90
6666;DHT22;3369;49.906;8.598;2022-10-23T06:21:49;9.10;99.90
6666;DHT22;3369;49.906;8.598;2022-10-23T06:24:15;9.20;99.90
6666;DHT22;3369;49.906;8.598;2022-10-23T06:26:40;9.20;99.90
6666;DHT22;3369;49.906;8.598;2022-10-23T06:29:06;9.20;99.90
6666;DHT22;3369;49.906;8.598;2022-10-23T06:31:32;9.20;99.90
6666;DHT22;3369;49.906;8.598;2022-10-23T06:33:58;9.20;99.90
6666;DHT22;3369;49.906;8.598;2022-10-23T06:36:24;9.20;99.90
6666;DHT22;3369;49.906;8.598;2022-10-23T06:38:50;9.20;99.90
6666;DHT22;3369;49.906;8.598;2022-10-23T06:41:19;9.20;99.90
6666;DHT22;3369;49.906;8.598;2022-10-23T06:43:50;9.20;99.90
6666;DHT22;3369;49.906;8.598;2022-10-23T06:46:17;9.20;99.90
6666;DHT22;3369;49.906;8.598;2022-10-23T06:48:43;9.20;99.90
6666;DHT22;3369;49.906;8.598;2022-10-23T06:51:11;9.20;99.90
6666;DHT22;3369;49.906;8.598;2022-10-23T06:53:38;9.20;99.90
6666;DHT22;3369;49.906;8.598;2022-10-23T06:56:06;9.30;99.90
6666;DHT22;3369;49.906;8.598;2022-10-23T06:58:33;9.30;99.90
6666;DHT22;3369;49.906;8.598;2022-10-23T07:01:04;9.40;99.90
6666;DHT22;3369;49.906;8.598;2022-10-23T07:03:30;9.40;99.90
6666;DHT22;3369;49.906;8.598;2022-10-23T07:05:59;9.40;99.90
6666;DHT22;3369;49.906;8.598;2022-10-23T07:08:26;9.50;99.90
6666;DHT22;3369;49.906;8.598;2022-10-23T07:10:52;9.50;99.90
6666;DHT22;3369;49.906;8.598;2022-10-23T07:13:17;9.60;99.90
6666;DHT22;3369;49.906;8.598;2022-10-23T07:15:43;9.70;99.90
6666;DHT22;3369;49.906;8.598;2022-10-23T07:18:09;9.70;99.90
6666;DHT22;3369;49.906;8.598;2022-10-23T07:20:40;9.80;99.90
6666;DHT22;3369;49.906;8.598;2022-10-23T07:23:06;9.80;99.90
6666;DHT22;3369;49.906;8.598;2022-10-23T07:25:32;9.90;99.90
6666;DHT22;3369;49.906;8.598;2022-10-23T07:27:57;9.90;99.90
6666;DHT22;3369;49.906;8.598;2022-10-23T07:30:23;10.10;99.90
6666;DHT22;3369;49.906;8.598;2022-10-23T07:32:49;10.10;99.90
6666;DHT22;3369;49.906;8.598;2022-10-23T07:35:15;10.20;99.90
6666;DHT22;3369;49.906;8.598;2022-10-23T07:37:41;10.30;99.90
6666;DHT22;3369;49.906;8.598;2022-10-23T07:40:07;10.30;99.90
6666;DHT22;3369;49.906;8.598;2022-10-23T07:42:33;10.40;99.90
6666;DHT22;3369;49.906;8.598;2022-10-23T07:44:59;10.50;99.90
6666;DHT22;3369;49.906;8.598;2022-10-23T07:47:24;10.50;99.90
6666;DHT22;3369;49.906;8.598;2022-10-23T07:49:50;10.60;99.90
6666;DHT22;3369;49.906;8.598;2022-10-23T07:52:16;10.70;99.90
6666;DHT22;3369;49.906;8.598;2022-10-23T07:54:42;10.80;99.90
6666;DHT22;3369;49.906;8.598;2022-10-23T07:57:09;10.90;99.90
6666;DHT22;3369;49.906;8.598;2022-10-23T07:59:36;11.00;99.90
6666;DHT22;3369;49.906;8.598;2022-10-23T08:02:02;11.00;99.90
6666;DHT22;3369;49.906;8.598;2022-10-23T08:04:28;11.10;99.90
6666;DHT22;3369;49.906;8.598;2022-10-23T08:06:54;11.20;99.90
6666;DHT22;3369;49.906;8.598;2022-10-23T08:09:21;11.30;99.90
6666;DHT22;3369;49.906;8.598;2022-10-23T08:11:46;11.40;99.90
6666;DHT22;3369;49.906;8.598;2022-10-23T08:14:12;11.40;99.90
6666;DHT22;3369;49.906;8.598;2022-10-23T08:16:38;11.50;99.90
6666;DHT22;3369;49.906;8.598;2022-10-23T08:19:06;11.60;99.90
6666;DHT22;3369;49.906;8.598;2022-10-23T08:21:32;11.70;99.90
6666;DHT22;3369;49.906;8.598;2022-10-23T08:23:59;11.80;99.90
6666;DHT22;3369;49.906;8.598;2022-10-23T08:26:26;11.80;99.90
6666;DHT22;3369;49.906;8.598;2022-10-23T08:28:54;11.90;99.90
6666;DHT22;3369;49.906;8.598;2022-10-23T08:31:20;12.00;99.90
6666;DHT22;3369;49.906;8.598;2022-10-23T08:33:46;12.20;99.90
6666;DHT22;3369;49.906;8.598;2022-10-23T08:38:46;12.40;99.90
6666;DHT22;3369;49.906;8.598;2022-10-23T08:41:36;12.50;99.90
6666;DHT22;3369;49.906;8.598;2022-10-23T08:46:46;12.70;99.90
6666;DHT22;3369;49.906;8.598;2022-10-23T08:52:01;12.90;99.90
6666;DHT22;3369;49.906;8.598;2022-10-23T08:54:48;13.00;99.90
6666;DHT22;3369;49.906;8.598;2022-10-23T08:57:18;13.10;99.90
6666;DHT22;3369;49.906;8.598;2022-10-23T08:59:56;13.10;99.90
6666;DHT22;3369;49.906;8.598;2022-10-23T09:02:47;13.20;99.90
6666;DHT22;3369;49.906;8.598;2022-10-23T09:05:56;13.30;99.90
6666;DHT22;3369;49.906;8.598;2022-10-23T09:12:16;13.50;99.90
6666;DHT22;3369;49.906;8.598;2022-10-23T09:19:44;13.70;99.90
6666;DHT22;3369;49.906;8.598;2022-10-23T09:22:10;13.70;99.90
6666;DHT22;3369;49.906;8.598;2022-10-23T09:24:36;13.70;99.90
6666;DHT22;3369;49.906;8.598;2022-10-23T09:27:02;13.80;99.90
6666;DHT22;3369;49.906;8.598;2022-10-23T09:29:32;13.80;99.90
6666;DHT22;3369;49.906;8.598;2022-10-23T09:32:02;13.80;99.90
6666;DHT22;3369;49.906;8.598;2022-10-23T09:34:29;13.80;99.90
6666;DHT22;3369;49.906;8.598;2022-10-23T09:36:58;13.90;99.90
6666;DHT22;3369;49.906;8.598;2022-10-23T09:39:35;13.90;99.90
6666;DHT22;3369;49.906;8.598;2022-10-23T09:42:13;14.00;99.90
6666;DHT22;3369;49.906;8.598;2022-10-23T09:44:46;14.10;99.90
6666;DHT22;3369;49.906;8.598;2022-10-23T09:47:17;14.20;99.90
6666;DHT22;3369;49.906;8.598;2022-10-23T09:49:49;14.20;99.90
6666;DHT22;3369;49.906;8.598;2022-10-23T09:57:39;14.30;99.90
6666;DHT22;3369;49.906;8.598;2022-10-23T10:02:40;14.30;99.90
6666;DHT22;3369;49.906;8.598;2022-10-23T10:05:29;14.30;99.90
6666;DHT22;3369;49.906;8.598;2022-10-23T10:08:06;14.30;99.90
6666;DHT22;3369;49.906;8.598;2022-10-23T10:11:08;14.30;99.90
6666;DHT22;3369;49.906;8.598;2022-10-23T10:13:50;14.30;99.90
6666;DHT22;3369;49.906;8.598;2022-10-23T10:16:30;14.40;99.90
6666;DHT22;3369;49.906;8.598;2022-10-23T10:21:48;14.40;99.90
6666;DHT22;3369;49.906;8.598;2022-10-23T10:24:22;14.50;99.90
6666;DHT22;3369;49.906;8.598;2022-10-23T10:34:49;14.60;99.90
6666;DHT22;3369;49.906;8.598;2022-10-23T10:37:39;14.60;99.90
6666;DHT22;3369;49.906;8.598;2022-10-23T10:40:30;14.60;99.90
6666;DHT22;3369;49.906;8.598;2022-10-23T10:51:54;14.70;99.90
6666;DHT22;3369;49.906;8.598;2022-10-23T10:57:40;14.80;99.90
6666;DHT22;3369;49.906;8.598;2022-10-23T11:00:16;14.80;99.90
6666;DHT22;3369;49.906;8.598;2022-10-23T11:06:15;14.80;99.90
6666;DHT22;3369;49.906;8.598;2022-10-23T11:08:43;14.90;99.90
6666;DHT22;3369;49.906;8.598;2022-10-23T11:11:32;14.90;99.90
6666;DHT22;3369;49.906;8.598;2022-10-23T11:13:59;15.00;99.90
6666;DHT22;3369;49.906;8.598;2022-10-23T11:16:31;15.10;99.90
6666;DHT22;3369;49.906;8.598;2022-10-23T11:19:03;15.20;99.90
6666;DHT22;3369;49.906;8.598;2022-10-23T11:21:43;15.30;99.90
6666;DHT22;3369;49.906;8.598;2022-10-23T11:30:07;15.60;99.90
6666;DHT22;3369;49.906;8.598;2022-10-23T11:38:15;16.00;99.90
6666;DHT22;3369;49.906;8.598;2022-10-23T11:40:50;16.10;99.90
6666;DHT22;3369;49.906;8.598;2022-10-23T11:43:31;16.30;99.90
6666;DHT22;3369;49.906;8.598;2022-10-23T11:45:58;16.30;99.90
6666;DHT22;3369;49.906;8.598;2022-10-23T11:48:41;16.40;99.90
6666;DHT22;3369;49.906;8.598;2022-10-23T11:51:26;16.40;99.90
6666;DHT22;3369;49.906;8.598;2022-10-23T11:53:52;16.50;99.90
6666;DHT22;3369;49.906;8.598;2022-10-23T11:58:51;16.70;99.90
6666;DHT22;3369;49.906;8.598;2022-10-23T12:01:59;16.80;99.90
6666;DHT22;3369;49.906;8.598;2022-10-23T12:04:19;16.90;99.90
6666;DHT22;3369;49.906;8.598;2022-10-23T12:06:52;17.10;99.90
6666;DHT22;3369;49.906;8.598;2022-10-23T12:09:27;17.20;99.90
6666;DHT22;3369;49.906;8.598;2022-10-23T12:14:37;17.30;99.90
6666;DHT22;3369;49.906;8.598;2022-10-23T12:23:05;17.70;99.90
6666;DHT22;3369;49.906;8.598;2022-10-23T12:30:53;18.00;99.90
6666;DHT22;3369;49.906;8.598;2022-10-23T12:33:43;18.10;99.90
6666;DHT22;3369;49.906;8.598;2022-10-23T12:38:55;18.20;99.90
6666;DHT22;3369;49.906;8.598;2022-10-23T12:41:25;18.20;99.90
6666;DHT22;3369;49.906;8.598;2022-10-23T12:44:00;18.20;99.90
6666;DHT22;3369;49.906;8.598;2022-10-23T12:48:53;18.20;99.90
6666;DHT22;3369;49.906;8.598;2022-10-23T12:51:34;18.20;99.90
6666;DHT22;3369;49.906;8.598;2022-10-23T12:54:01;18.20;99.90
6666;DHT22;3369;49.906;8.598;2022-10-23T12:56:33;18.10;99.90
6666;DHT22;3369;49.906;8.598;2022-10-23T12:58:59;18.10;99.90
6666;DHT22;3369;49.906;8.598;2022-10-23T13:01:30;18.10;99.90
6666;DHT22;3369;49.906;8.598;2022-10-23T13:04:18;18.10;99.90
6666;DHT22;3369;49.906;8.598;2022-10-23T13:06:47;18.10;99.90
6666;DHT22;3369;49.906;8.598;2022-10-23T13:09:34;18.10;99.90
6666;DHT22;3369;49.906;8.598;2022-10-23T13:12:03;18.10;99.90
6666;DHT22;3369;49.906;8.598;2022-10-23T13:14:41;18.20;99.90
6666;DHT22;3369;49.906;8.598;2022-10-23T13:17:09;18.20;99.90
6666;DHT22;3369;49.906;8.598;2022-10-23T13:19:35;18.20;99.90
6666;DHT22;3369;49.906;8.598;2022-10-23T13:22:16;18.30;99.90
6666;DHT22;3369;49.906;8.598;2022-10-23T13:24:42;18.30;99.90
6666;DHT22;3369;49.906;8.598;2022-10-23T13:29:50;18.40;99.90
6666;DHT22;3369;49.906;8.598;2022-10-23T13:32:23;18.40;99.90
6666;DHT22;3369;49.906;8.598;2022-10-23T13:34:51;18.40;99.90
6666;DHT22;3369;49.906;8.598;2022-10-23T13:37:25;18.40;99.90
6666;DHT22;3369;49.906;8.598;2022-10-23T13:42:47;18.40;99.90
6666;DHT22;3369;49.906;8.598;2022-10-23T13:45:18;18.40;99.90
6666;DHT22;3369;49.906;8.598;2022-10-23T13:47:45;18.40;99.90
6666;DHT22;3369;49.906;8.598;2022-10-23T13:50:10;18.40;99.90
6666;DHT22;3369;49.906;8.598;2022-10-23T13:52:36;18.40;99.90
6666;DHT22;3369;49.906;8.598;2022-10-23T13:55:22;18.40;99.90
6666;DHT22;3369;49.906;8.598;2022-10-23T13:57:48;18.30;99.90
6666;DHT22;3369;49.906;8.598;2022-10-23T14:00:14;18.30;99.90
6666;DHT22;3369;49.906;8.598;2022-10-23T14:02:41;18.30;99.90
6666;DHT22;3369;49.906;8.598;2022-10-23T14:05:07;18.30;99.90
6666;DHT22;3369;49.906;8.598;2022-10-23T14:07:33;18.30;99.90
6666;DHT22;3369;49.906;8.598;2022-10-23T14:09:59;18.20;99.90
6666;DHT22;3369;49.906;8.598;2022-10-23T14:12:24;18.20;99.90
6666;DHT22;3369;49.906;8.598;2022-10-23T14:14:51;18.20;99.90
6666;DHT22;3369;49.906;8.598;2022-10-23T14:17:18;18.20;99.90
6666;DHT22;3369;49.906;8.598;2022-10-23T14:19:43;18.20;99.90
6666;DHT22;3369;49.906;8.598;2022-10-23T14:22:10;18.20;99.90
6666;DHT22;3369;49.906;8.598;2022-10-23T14:24:36;18.20;99.90
6666;DHT22;3369;49.906;8.598;2022-10-23T14:27:01;18.20;99.90
6666;DHT22;3369;49.906;8.598;2022-10-23T14:29:27;18.20;99.90
6666;DHT22;3369;49.906;8.598;2022-10-23T14:31:53;18.20;99.90
6666;DHT22;3369;49.906;8.598;2022-10-23T14:54:37;17.80;99.90
6666;DHT22;3369;49.906;8.598;2022-10-23T14:57:03;17.80;99.90
6666;DHT22;3369;49.906;8.598;2022-10-23T14:59:29;17.80;99.90
6666;DHT22;3369;49.906;8.598;2022-10-23T15:01:55;17.70;99.90
6666;DHT22;3369;49.906;8.598;2022-10-23T15:04:20;17.70;99.90
6666;DHT22;3369;49.906;8.598;2022-10-23T15:06:46;17.60;99.90
6666;DHT22;3369;49.906;8.598;2022-10-23T15:09:13;17.60;99.90
6666;DHT22;3369;49.906;8.598;2022-10-23T15:11:39;17.60;99.90
6666;DHT22;3369;49.906;8.598;2022-10-23T15:14:05;17.60;99.90
6666;DHT22;3369;49.906;8.598;2022-10-23T15:16:31;17.60;99.90
6666;DHT22;3369;49.906;8.598;2022-10-23T15:18:56;17.60;99.90
6666;DHT22;3369;49.906;8.598;2022-10-23T15:21:22;17.50;99.90
6666;DHT22;3369;49.906;8.598;2022-10-23T15:23:48;17.50;99.90
6666;DHT22;3369;49.906;8.598;2022-10-23T15:26:19;17.50;99.90
6666;DHT22;3369;49.906;8.598;2022-10-23T15:28:52;17.50;99.90
6666;DHT22;3369;49.906;8.598;2022-10-23T15:34:03;17.40;99.90
6666;DHT22;3369;49.906;8.598;2022-10-23T15:36:29;17.40;99.90
6666;DHT22;3369;49.906;8.598;2022-10-23T15:38:55;17.40;99.90
6666;DHT22;3369;49.906;8.598;2022-10-23T15:41:26;17.40;99.90
6666;DHT22;3369;49.906;8.598;2022-10-23T15:43:52;17.40;99.90
6666;DHT22;3369;49.906;8.598;2022-10-23T15:46:18;17.30;99.90
6666;DHT22;3369;49.906;8.598;2022-10-23T15:48:44;17.30;99.90
6666;DHT22;3369;49.906;8.598;2022-10-23T15:51:10;17.20;99.90
6666;DHT22;3369;49.906;8.598;2022-10-23T15:53:36;17.20;99.90
6666;DHT22;3369;49.906;8.598;2022-10-23T15:56:01;17.10;99.90
6666;DHT22;3369;49.906;8.598;2022-10-23T15:58:27;17.10;99.90
6666;DHT22;3369;49.906;8.598;2022-10-23T16:00:53;17.10;99.90
6666;DHT22;3369;49.906;8.598;2022-10-23T16:03:18;17.00;99.90
6666;DHT22;3369;49.906;8.598;2022-10-23T16:05:44;16.90;99.90
6666;DHT22;3369;49.906;8.598;2022-10-23T16:08:10;16.90;99.90
6666;DHT22;3369;49.906;8.598;2022-10-23T16:10:40;16.80;99.90
6666;DHT22;3369;49.906;8.598;2022-10-23T16:13:07;16.80;99.90
6666;DHT22;3369;49.906;8.598;2022-10-23T16:15:36;16.70;99.90
6666;DHT22;3369;49.906;8.598;2022-10-23T16:18:03;16.70;99.90
6666;DHT22;3369;49.906;8.598;2022-10-23T16:20:28;16.60;99.90
6666;DHT22;3369;49.906;8.598;2022-10-23T16:22:54;16.60;99.90
6666;DHT22;3369;49.906;8.598;2022-10-23T16:25:20;16.60;99.90
6666;DHT22;3369;49.906;8.598;2022-10-23T16:27:46;16.50;99.90
6666;DHT22;3369;49.906;8.598;2022-10-23T16:30:13;16.50;99.90
6666;DHT22;3369;49.906;8.598;2022-10-23T16:32:39;16.50;99.90
6666;DHT22;3369;49.906;8.598;2022-10-23T16:35:05;16.40;99.90
6666;DHT22;3369;49.906;8.598;2022-10-23T16:37:31;16.40;99.90
6666;DHT22;3369;49.906;8.598;2022-10-23T16:39:58;16.40;99.90
6666;DHT22;3369;49.906;8.598;2022-10-23T16:42:24;16.40;99.90
6666;DHT22;3369;49.906;8.598;2022-10-23T16:44:50;16.30;99.90
6666;DHT22;3369;49.906;8.598;2022-10-23T16:47:16;16.30;99.90
6666;DHT22;3369;49.906;8.598;2022-10-23T16:49:42;16.30;99.90
6666;DHT22;3369;49.906;8.598;2022-10-23T16:52:08;16.20;99.90
6666;DHT22;3369;49.906;8.598;2022-10-23T16:54:34;16.20;99.90
6666;DHT22;3369;49.906;8.598;2022-10-23T16:56:59;16.20;99.90
6666;DHT22;3369;49.906;8.598;2022-10-23T16:59:25;16.10;99.90
6666;DHT22;3369;49.906;8.598;2022-10-23T17:01:51;16.10;99.90
6666;DHT22;3369;49.906;8.598;2022-10-23T17:04:17;16.10;99.90
6666;DHT22;3369;49.906;8.598;2022-10-23T17:06:43;16.00;99.90
6666;DHT22;3369;49.906;8.598;2022-10-23T17:09:09;16.00;99.90
6666;DHT22;3369;49.906;8.598;2022-10-23T17:11:39;16.00;99.90
6666;DHT22;3369;49.906;8.598;2022-10-23T17:14:10;16.00;99.90
6666;DHT22;3369;49.906;8.598;2022-10-23T17:16:43;15.90;99.90
6666;DHT22;3369;49.906;8.598;2022-10-23T17:19:10;15.90;99.90
6666;DHT22;3369;49.906;8.598;2022-10-23T17:21:38;15.90;99.90
6666;DHT22;3369;49.906;8.598;2022-10-23T17:24:05;15.90;99.90
6666;DHT22;3369;49.906;8.598;2022-10-23T17:26:31;15.90;99.90
6666;DHT22;3369;49.906;8.598;2022-10-23T17:28:57;15.90;99.90
6666;DHT22;3369;49.906;8.598;2022-10-23T17:31:26;15.90;99.90
6666;DHT22;3369;49.906;8.598;2022-10-23T17:33:55;15.80;99.90
6666;DHT22;3369;49.906;8.598;2022-10-23T17:36:25;15.80;99.90
6666;DHT22;3369;49.906;8.598;2022-10-23T17:38:51;15.80;99.90
6666;DHT22;3369;49.906;8.598;2022-10-23T17:41:18;15.80;99.90
6666;DHT22;3369;49.906;8.598;2022-10-23T17:43:44;15.80;99.90
6666;DHT22;3369;49.906;8.598;2022-10-23T17:46:12;15.90;99.90
6666;DHT22;3369;49.906;8.598;2022-10-23T17:48:38;15.90;99.90
6666;DHT22;3369;49.906;8.598;2022-10-23T17:51:24;15.90;99.90
6666;DHT22;3369;49.906;8.598;2022-10-23T17:53:52;16.00;99.90
6666;DHT22;3369;49.906;8.598;2022-10-23T17:56:21;16.00;99.90
6666;DHT22;3369;49.906;8.598;2022-10-23T17:58:52;16.00;99.90
6666;DHT22;3369;49.906;8.598;2022-10-23T18:01:20;16.00;99.90
6666;DHT22;3369;49.906;8.598;2022-10-23T18:03:46;16.00;99.90
6666;DHT22;3369;49.906;8.598;2022-10-23T18:06:14;15.90;99.90
6666;DHT22;3369;49.906;8.598;2022-10-23T18:08:41;15.90;99.90
6666;DHT22;3369;49.906;8.598;2022-10-23T18:11:16;15.90;99.90
6666;DHT22;3369;49.906;8.598;2022-10-23T18:13:43;15.90;99.90
6666;DHT22;3369;49.906;8.598;2022-10-23T18:16:10;15.90;99.90
6666;DHT22;3369;49.906;8.598;2022-10-23T18:18:37;15.80;99.90
6666;DHT22;3369;49.906;8.598;2022-10-23T18:21:05;15.80;99.90
6666;DHT22;3369;49.906;8.598;2022-10-23T18:23:32;15.80;99.90
6666;DHT22;3369;49.906;8.598;2022-10-23T18:25:59;15.80;99.90
6666;DHT22;3369;49.906;8.598;2022-10-23T18:28:26;15.80;99.90
6666;DHT22;3369;49.906;8.598;2022-10-23T18:30:52;15.80;99.90
6666;DHT22;3369;49.906;8.598;2022-10-23T18:33:18;15.80;99.90
6666;DHT22;3369;49.906;8.598;2022-10-23T18:35:45;15.80;99.90
6666;DHT22;3369;49.906;8.598;2022-10-23T18:38:12;15.80;99.90
6666;DHT22;3369;49.906;8.598;2022-10-23T18:40:39;15.80;99.90
6666;DHT22;3369;49.906;8.598;2022-10-23T18:43:05;15.80;99.90
6666;DHT22;3369;49.906;8.598;2022-10-23T18:45:32;15.80;99.90
6666;DHT22;3369;49.906;8.598;2022-10-23T18:47:59;15.80;99.90
6666;DHT22;3369;49.906;8.598;2022-10-23T18:50:25;15.80;99.90
6666;DHT22;3369;49.906;8.598;2022-10-23T18:52:50;15.80;99.90
6666;DHT22;3369;49.906;8.598;2022-10-23T18:55:16;15.80;99.90
6666;DHT22;3369;49.906;8.598;2022-10-23T18:57:42;15.80;99.90